sensor_id;sensor_type;location;lat;lon;timestamp;pressure;altitude;pressure_sealevel;temperature;humidity
31337;BME280;22846;42.654;23.314;2024-01-11T00:00:32;95400.75;;;23.19;53.78
31337;BME280;22846;42.654;23.314;2024-01-11T00:02:57;95398.34;;;23.21;54.28
31337;BME280;22846;42.654;23.314;2024-01-11T00:05:23;95396.84;;;23.20;54.15
31337;BME280;22846;42.654;23.314;2024-01-11T00:07:48;95391.78;;;23.18;54.52
31337;BME280;22846;42.654;23.314;2024-01-11T00:10:15;95384.03;;;23.17;54.44
31337;BME280;22846;42.654;23.314;2024-01-11T00:12:41;95372.91;;;23.05;54.15
31337;BME280;22846;42.654;23.314;2024-01-11T00:15:06;95382.09;;;23.14;54.14
31337;BME280;22846;42.654;23.314;2024-01-11T00:17:32;95384.47;;;23.12;54.25
31337;BME280;22846;42.654;23.314;2024-01-11T00:19:57;95376.28;;;23.12;54.27
31337;BME280;22846;42.654;23.314;2024-01-11T00:22:23;95383.69;;;23.11;54.05
31337;BME280;22846;42.654;23.314;2024-01-11T00:24:48;95358.91;;;22.99;54.13
31337;BME280;22846;42.654;23.314;2024-01-11T00:27:13;95379.06;;;23.08;54.22
31337;BME280;22846;42.654;23.314;2024-01-11T00:29:39;95375.56;;;23.08;54.15
31337;BME280;22846;42.654;23.314;2024-01-11T00:32:04;95343.16;;;22.84;54.50
31337;BME280;22846;42.654;23.314;2024-01-11T00:34:30;95377.16;;;23.06;54.63
31337;BME280;22846;42.654;23.314;2024-01-11T00:36:56;95376.41;;;23.02;54.02
31337;BME280;22846;42.654;23.314;2024-01-11T00:39:21;95379.53;;;23.04;54.63
31337;BME280;22846;42.654;23.314;2024-01-11T00:41:47;95358.66;;;22.90;54.17
31337;BME280;22846;42.654;23.314;2024-01-11T00:46:56;95361.31;;;22.94;54.28
31337;BME280;22846;42.654;23.314;2024-01-11T00:49:22;95369.81;;;22.99;54.42
31337;BME280;22846;42.654;23.314;2024-01-11T00:51:47;95365.56;;;22.98;54.31
31337;BME280;22846;42.654;23.314;2024-01-11T00:54:13;95365.97;;;22.97;54.11
31337;BME280;22846;42.654;23.314;2024-01-11T00:56:38;95341.97;;;22.85;54.24
31337;BME280;22846;42.654;23.314;2024-01-11T00:59:03;95363.25;;;22.97;54.07
31337;BME280;22846;42.654;23.314;2024-01-11T01:01:29;95343.09;;;22.87;53.91
31337;BME280;22846;42.654;23.314;2024-01-11T01:03:54;95344.66;;;22.88;54.26
31337;BME280;22846;42.654;23.314;2024-01-11T01:06:20;95343.06;;;22.91;54.17
31337;BME280;22846;42.654;23.314;2024-01-11T01:08:45;95336.16;;;22.83;53.66
31337;BME280;22846;42.654;23.314;2024-01-11T01:11:11;95343.91;;;22.88;53.89
31337;BME280;22846;42.654;23.314;2024-01-11T01:13:36;95339.31;;;22.81;54.43
31337;BME280;22846;42.654;23.314;2024-01-11T01:16:02;95358.59;;;22.94;54.61
31337;BME280;22846;42.654;23.314;2024-01-11T01:18:27;95352.38;;;22.93;54.29
31337;BME280;22846;42.654;23.314;2024-01-11T01:20:52;95357.06;;;22.93;54.19
31337;BME280;22846;42.654;23.314;2024-01-11T01:23:18;95361.38;;;22.90;54.17
31337;BME280;22846;42.654;23.314;2024-01-11T01:25:43;95334.28;;;22.80;54.03
31337;BME280;22846;42.654;23.314;2024-01-11T01:28:09;95353.19;;;22.90;54.48
31337;BME280;22846;42.654;23.314;2024-01-11T01:30:35;95352.44;;;22.90;54.42
31337;BME280;22846;42.654;23.314;2024-01-11T01:33:00;95351.66;;;22.89;54.35
31337;BME280;22846;42.654;23.314;2024-01-11T01:35:26;95312.25;;;22.67;54.32
31337;BME280;22846;42.654;23.314;2024-01-11T01:37:51;95333.47;;;22.79;54.42
31337;BME280;22846;42.654;23.314;2024-01-11T01:40:16;95347.38;;;22.88;54.50
31337;BME280;22846;42.654;23.314;2024-01-11T01:42:43;95318.38;;;22.75;54.46
31337;BME280;22846;42.654;23.314;2024-01-11T01:45:09;95335.78;;;22.84;54.11
31337;BME280;22846;42.654;23.314;2024-01-11T01:47:34;95328.78;;;22.83;54.02
31337;BME280;22846;42.654;23.314;2024-01-11T01:50:00;95315.25;;;22.76;54.38
31337;BME280;22846;42.654;23.314;2024-01-11T01:52:25;95322.94;;;22.81;54.37
31337;BME280;22846;42.654;23.314;2024-01-11T01:54:51;95314.03;;;22.81;54.21
31337;BME280;22846;42.654;23.314;2024-01-11T01:57:18;95315.97;;;22.80;54.12
31337;BME280;22846;42.654;23.314;2024-01-11T01:59:45;95313.66;;;22.79;54.33
31337;BME280;22846;42.654;23.314;2024-01-11T02:02:11;95302.84;;;22.72;54.44
31337;BME280;22846;42.654;23.314;2024-01-11T02:04:37;95303.50;;;22.79;54.30
31337;BME280;22846;42.654;23.314;2024-01-11T02:07:04;95295.06;;;22.70;54.18
31337;BME280;22846;42.654;23.314;2024-01-11T02:09:30;95299.66;;;22.77;54.20
31337;BME280;22846;42.654;23.314;2024-01-11T02:11:55;95288.91;;;22.66;54.31
31337;BME280;22846;42.654;23.314;2024-01-11T02:14:21;95301.25;;;22.74;54.62
31337;BME280;22846;42.654;23.314;2024-01-11T02:16:46;95302.81;;;22.75;54.19
31337;BME280;22846;42.654;23.314;2024-01-11T02:19:18;95303.97;;;22.74;54.28
31337;BME280;22846;42.654;23.314;2024-01-11T02:21:46;95307.47;;;22.75;53.91
31337;BME280;22846;42.654;23.314;2024-01-11T02:24:12;95301.31;;;22.71;54.01
31337;BME280;22846;42.654;23.314;2024-01-11T02:27:00;95306.34;;;22.72;54.21
31337;BME280;22846;42.654;23.314;2024-01-11T02:29:27;95285.00;;;22.67;54.37
31337;BME280;22846;42.654;23.314;2024-01-11T02:31:54;95299.34;;;22.71;54.20
31337;BME280;22846;42.654;23.314;2024-01-11T02:34:20;95307.50;;;22.71;54.22
31337;BME280;22846;42.654;23.314;2024-01-11T02:36:46;95304.03;;;22.71;54.24
31337;BME280;22846;42.654;23.314;2024-01-11T02:39:12;95277.00;;;22.53;54.03
31337;BME280;22846;42.654;23.314;2024-01-11T02:41:38;95299.75;;;22.70;53.92
31337;BME280;22846;42.654;23.314;2024-01-11T02:44:04;95295.13;;;22.67;54.17
31337;BME280;22846;42.654;23.314;2024-01-11T02:46:30;95287.38;;;22.65;54.45
31337;BME280;22846;42.654;23.314;2024-01-11T02:48:55;95290.03;;;22.69;54.12
31337;BME280;22846;42.654;23.314;2024-01-11T02:51:21;95290.47;;;22.67;54.11
31337;BME280;22846;42.654;23.314;2024-01-11T02:53:46;95285.81;;;22.64;54.16
31337;BME280;22846;42.654;23.314;2024-01-11T02:56:12;95286.25;;;22.63;53.75
31337;BME280;22846;42.654;23.314;2024-01-11T02:58:37;95287.38;;;22.65;53.65
31337;BME280;22846;42.654;23.314;2024-01-11T03:01:02;95282.69;;;22.66;53.80
31337;BME280;22846;42.654;23.314;2024-01-11T03:03:28;95291.28;;;22.64;53.80
31337;BME280;22846;42.654;23.314;2024-01-11T03:05:54;95270.34;;;22.58;53.75
31337;BME280;22846;42.654;23.314;2024-01-11T03:08:19;95247.25;;;22.39;53.95
31337;BME280;22846;42.654;23.314;2024-01-11T03:10:45;95296.72;;;22.64;53.97
31337;BME280;22846;42.654;23.314;2024-01-11T03:13:10;95270.81;;;22.53;54.03
31337;BME280;22846;42.654;23.314;2024-01-11T03:15:35;95285.44;;;22.62;53.57
31337;BME280;22846;42.654;23.314;2024-01-11T03:18:01;95288.19;;;22.62;54.09
31337;BME280;22846;42.654;23.314;2024-01-11T03:20:26;95266.63;;;22.45;53.76
31337;BME280;22846;42.654;23.314;2024-01-11T03:22:51;95270.81;;;22.53;53.93
31337;BME280;22846;42.654;23.314;2024-01-11T03:25:17;95269.25;;;22.52;53.53
31337;BME280;22846;42.654;23.314;2024-01-11T03:27:43;95270.81;;;22.53;53.89
31337;BME280;22846;42.654;23.314;2024-01-11T03:30:09;95271.13;;;22.58;53.71
31337;BME280;22846;42.654;23.314;2024-01-11T03:32:34;95275.38;;;22.59;53.71
31337;BME280;22846;42.654;23.314;2024-01-11T03:34:59;95273.09;;;22.54;53.77
31337;BME280;22846;42.654;23.314;2024-01-11T03:37:25;95277.31;;;22.59;53.93
31337;BME280;22846;42.654;23.314;2024-01-11T03:39:50;95282.03;;;22.58;53.97
31337;BME280;22846;42.654;23.314;2024-01-11T03:42:16;95269.56;;;22.57;53.83
31337;BME280;22846;42.654;23.314;2024-01-11T03:44:41;95268.47;;;22.51;53.42
31337;BME280;22846;42.654;23.314;2024-01-11T03:47:06;95280.47;;;22.57;53.51
31337;BME280;22846;42.654;23.314;2024-01-11T03:49:32;95266.94;;;22.50;53.60
31337;BME280;22846;42.654;23.314;2024-01-11T03:51:57;95275.47;;;22.52;53.65
31337;BME280;22846;42.654;23.314;2024-01-11T03:54:23;95273.91;;;22.55;53.47
31337;BME280;22846;42.654;23.314;2024-01-11T03:56:48;95270.38;;;22.54;53.86
31337;BME280;22846;42.654;23.314;2024-01-11T03:59:13;95264.19;;;22.54;53.37
31337;BME280;22846;42.654;23.314;2024-01-11T04:01:42;95260.81;;;22.43;53.56
31337;BME280;22846;42.654;23.314;2024-01-11T04:04:08;95261.84;;;22.52;53.38
31337;BME280;22846;42.654;23.314;2024-01-11T04:06:33;95259.91;;;22.53;53.40
31337;BME280;22846;42.654;23.314;2024-01-11T04:08:59;95268.84;;;22.53;53.43
31337;BME280;22846;42.654;23.314;2024-01-11T04:11:28;95254.84;;;22.51;53.75
31337;BME280;22846;42.654;23.314;2024-01-11T04:13:53;95255.63;;;22.52;53.48
31337;BME280;22846;42.654;23.314;2024-01-11T04:16:19;95254.84;;;22.51;53.32
31337;BME280;22846;42.654;23.314;2024-01-11T04:18:45;95242.50;;;22.43;53.36
31337;BME280;22846;42.654;23.314;2024-01-11T04:21:23;95238.28;;;22.42;53.45
31337;BME280;22846;42.654;23.314;2024-01-11T04:23:50;95251.78;;;22.49;53.25
31337;BME280;22846;42.654;23.314;2024-01-11T04:26:16;95229.38;;;22.38;53.20
31337;BME280;22846;42.654;23.314;2024-01-11T04:28:43;95248.69;;;22.47;53.36
31337;BME280;22846;42.654;23.314;2024-01-11T04:31:08;95227.44;;;22.35;53.48
31337;BME280;22846;42.654;23.314;2024-01-11T04:33:34;95228.22;;;22.36;53.17
31337;BME280;22846;42.654;23.314;2024-01-11T04:35:59;95244.00;;;22.48;53.33
31337;BME280;22846;42.654;23.314;2024-01-11T04:38:24;95244.44;;;22.46;53.53
31337;BME280;22846;42.654;23.314;2024-01-11T04:40:50;95246.38;;;22.46;53.16
31337;BME280;22846;42.654;23.314;2024-01-11T04:43:15;95248.31;;;22.45;53.09
31337;BME280;22846;42.654;23.314;2024-01-11T04:45:41;95252.59;;;22.46;53.15
31337;BME280;22846;42.654;23.314;2024-01-11T04:48:06;95250.34;;;22.41;52.15
31337;BME280;22846;42.654;23.314;2024-01-11T04:50:31;95227.09;;;22.33;52.23
31337;BME280;22846;42.654;23.314;2024-01-11T04:52:57;95239.84;;;22.40;51.50
31337;BME280;22846;42.654;23.314;2024-01-11T04:55:22;95252.44;;;22.57;51.11
31337;BME280;22846;42.654;23.314;2024-01-11T04:57:48;95256.97;;;22.67;50.72
31337;BME280;22846;42.654;23.314;2024-01-11T05:00:13;95222.59;;;22.50;50.63
31337;BME280;22846;42.654;23.314;2024-01-11T05:02:39;95256.38;;;22.82;50.72
31337;BME280;22846;42.654;23.314;2024-01-11T05:05:04;95252.84;;;22.85;49.95
31337;BME280;22846;42.654;23.314;2024-01-11T05:07:30;95209.53;;;22.64;50.58
31337;BME280;22846;42.654;23.314;2024-01-11T05:09:55;95259.34;;;22.91;51.88
31337;BME280;22846;42.654;23.314;2024-01-11T05:12:21;95250.31;;;22.98;52.02
31337;BME280;22846;42.654;23.314;2024-01-11T05:14:46;95258.13;;;22.96;50.83
31337;BME280;22846;42.654;23.314;2024-01-11T05:17:11;95189.03;;;22.56;50.29
31337;BME280;22846;42.654;23.314;2024-01-11T05:19:37;95245.94;;;23.04;49.80
31337;BME280;22846;42.654;23.314;2024-01-11T05:22:03;95241.94;;;23.11;49.31
31337;BME280;22846;42.654;23.314;2024-01-11T05:24:28;95215.19;;;23.03;49.54
31337;BME280;22846;42.654;23.314;2024-01-11T05:26:53;95234.00;;;23.20;49.38
31337;BME280;22846;42.654;23.314;2024-01-11T05:29:19;95221.19;;;23.17;49.37
31337;BME280;22846;42.654;23.314;2024-01-11T05:31:44;95230.31;;;23.30;49.37
31337;BME280;22846;42.654;23.314;2024-01-11T05:34:10;95225.63;;;23.31;49.58
31337;BME280;22846;42.654;23.314;2024-01-11T05:36:38;95227.84;;;23.39;49.75
31337;BME280;22846;42.654;23.314;2024-01-11T05:39:03;95203.88;;;23.27;49.31
31337;BME280;22846;42.654;23.314;2024-01-11T05:41:28;95226.50;;;23.47;49.40
31337;BME280;22846;42.654;23.314;2024-01-11T05:43:54;95224.91;;;23.50;49.52
31337;BME280;22846;42.654;23.314;2024-01-11T05:46:19;95222.19;;;23.50;49.66
31337;BME280;22846;42.654;23.314;2024-01-11T05:48:45;95217.53;;;23.47;50.13
31337;BME280;22846;42.654;23.314;2024-01-11T05:51:10;95221.53;;;23.42;50.08
31337;BME280;22846;42.654;23.314;2024-01-11T05:53:36;95201.16;;;23.27;50.26
31337;BME280;22846;42.654;23.314;2024-01-11T05:56:01;95210.94;;;23.25;50.62
31337;BME280;22846;42.654;23.314;2024-01-11T05:58:28;95215.91;;;23.30;50.90
31337;BME280;22846;42.654;23.314;2024-01-11T06:00:53;95202.88;;;23.18;50.41
31337;BME280;22846;42.654;23.314;2024-01-11T06:03:20;95207.97;;;23.16;50.14
31337;BME280;22846;42.654;23.314;2024-01-11T06:05:46;95198.03;;;23.03;50.92
31337;BME280;22846;42.654;23.314;2024-01-11T06:08:11;95204.56;;;23.08;50.19
31337;BME280;22846;42.654;23.314;2024-01-11T06:10:37;95210.44;;;23.07;49.79
31337;BME280;22846;42.654;23.314;2024-01-11T06:13:03;95210.09;;;23.05;50.09
31337;BME280;22846;42.654;23.314;2024-01-11T06:15:28;95212.84;;;23.02;50.30
31337;BME280;22846;42.654;23.314;2024-01-11T06:17:54;95209.00;;;22.99;50.38
31337;BME280;22846;42.654;23.314;2024-01-11T06:20:19;95189.69;;;22.90;50.19
31337;BME280;22846;42.654;23.314;2024-01-11T06:22:45;95203.47;;;23.06;49.77
31337;BME280;22846;42.654;23.314;2024-01-11T06:25:10;95202.44;;;23.19;49.67
31337;BME280;22846;42.654;23.314;2024-01-11T06:27:35;95206.53;;;23.31;49.39
31337;BME280;22846;42.654;23.314;2024-01-11T06:30:01;95204.47;;;23.38;49.24
31337;BME280;22846;42.654;23.314;2024-01-11T06:32:26;95196.56;;;23.44;49.07
31337;BME280;22846;42.654;23.314;2024-01-11T06:34:52;95197.63;;;23.50;49.35
31337;BME280;22846;42.654;23.314;2024-01-11T06:37:17;95197.16;;;23.55;49.15
31337;BME280;22846;42.654;23.314;2024-01-11T06:39:43;95193.56;;;23.58;48.90
31337;BME280;22846;42.654;23.314;2024-01-11T06:42:08;95187.66;;;23.63;48.88
31337;BME280;22846;42.654;23.314;2024-01-11T06:44:33;95186.81;;;23.66;48.53
31337;BME280;22846;42.654;23.314;2024-01-11T06:46:59;95183.59;;;23.71;49.01
31337;BME280;22846;42.654;23.314;2024-01-11T06:49:27;95143.56;;;23.45;48.67
31337;BME280;22846;42.654;23.314;2024-01-11T06:51:52;95174.56;;;23.74;48.74
31337;BME280;22846;42.654;23.314;2024-01-11T06:54:17;95182.16;;;23.86;48.72
31337;BME280;22846;42.654;23.314;2024-01-11T06:56:43;95185.56;;;23.90;49.03
31337;BME280;22846;42.654;23.314;2024-01-11T06:59:08;95122.22;;;23.59;49.06
31337;BME280;22846;42.654;23.314;2024-01-11T07:01:33;95180.31;;;23.98;48.51
31337;BME280;22846;42.654;23.314;2024-01-11T07:03:59;95182.66;;;24.00;48.57
31337;BME280;22846;42.654;23.314;2024-01-11T07:06:24;95178.81;;;23.97;48.16
31337;BME280;22846;42.654;23.314;2024-01-11T07:08:50;95187.53;;;24.08;48.65
31337;BME280;22846;42.654;23.314;2024-01-11T07:11:15;95189.28;;;24.18;48.76
31337;BME280;22846;42.654;23.314;2024-01-11T07:13:41;95182.47;;;24.26;48.44
31337;BME280;22846;42.654;23.314;2024-01-11T07:16:06;95179.19;;;24.35;48.36
31337;BME280;22846;42.654;23.314;2024-01-11T07:18:32;95125.91;;;24.07;48.38
31337;BME280;22846;42.654;23.314;2024-01-11T07:20:59;95173.50;;;24.45;48.75
31337;BME280;22846;42.654;23.314;2024-01-11T07:23:24;95184.69;;;24.51;48.73
31337;BME280;22846;42.654;23.314;2024-01-11T07:25:50;95183.00;;;24.57;48.67
31337;BME280;22846;42.654;23.314;2024-01-11T07:28:15;95137.78;;;24.36;48.77
31337;BME280;22846;42.654;23.314;2024-01-11T07:30:42;95179.59;;;24.69;48.65
31337;BME280;22846;42.654;23.314;2024-01-11T07:33:08;95171.31;;;24.72;48.48
31337;BME280;22846;42.654;23.314;2024-01-11T07:35:34;95176.69;;;24.76;48.69
31337;BME280;22846;42.654;23.314;2024-01-11T07:38:00;95174.66;;;24.79;48.25
31337;BME280;22846;42.654;23.314;2024-01-11T07:40:25;95162.28;;;24.75;48.60
31337;BME280;22846;42.654;23.314;2024-01-11T07:42:51;95176.13;;;24.84;48.50
31337;BME280;22846;42.654;23.314;2024-01-11T07:45:16;95177.91;;;24.90;48.21
31337;BME280;22846;42.654;23.314;2024-01-11T07:47:42;95172.03;;;24.92;48.59
31337;BME280;22846;42.654;23.314;2024-01-11T07:50:08;95178.94;;;24.96;48.20
31337;BME280;22846;42.654;23.314;2024-01-11T07:52:37;95157.66;;;24.88;48.19
31337;BME280;22846;42.654;23.314;2024-01-11T07:55:04;95174.50;;;25.02;48.50
31337;BME280;22846;42.654;23.314;2024-01-11T07:57:36;95174.06;;;25.04;48.66
31337;BME280;22846;42.654;23.314;2024-01-11T08:00:02;95165.00;;;25.07;48.57
31337;BME280;22846;42.654;23.314;2024-01-11T08:02:29;95162.22;;;25.10;48.14
31337;BME280;22846;42.654;23.314;2024-01-11T08:04:54;95154.75;;;25.11;48.66
31337;BME280;22846;42.654;23.314;2024-01-11T08:07:20;95160.91;;;25.15;48.26
31337;BME280;22846;42.654;23.314;2024-01-11T08:09:45;95160.47;;;25.16;48.57
31337;BME280;22846;42.654;23.314;2024-01-11T08:12:11;95163.13;;;25.20;48.33
31337;BME280;22846;42.654;23.314;2024-01-11T08:14:38;95160.75;;;25.22;48.15
31337;BME280;22846;42.654;23.314;2024-01-11T08:17:04;95157.56;;;25.23;48.34
31337;BME280;22846;42.654;23.314;2024-01-11T08:19:30;95149.34;;;25.23;48.38
31337;BME280;22846;42.654;23.314;2024-01-11T08:21:56;95154.75;;;25.27;47.76
31337;BME280;22846;42.654;23.314;2024-01-11T08:24:22;95122.28;;;25.13;47.37
31337;BME280;22846;42.654;23.314;2024-01-11T08:26:47;95140.22;;;25.30;46.99
31337;BME280;22846;42.654;23.314;2024-01-11T08:29:15;95151.16;;;25.30;46.95
31337;BME280;22846;42.654;23.314;2024-01-11T08:31:41;95144.22;;;25.25;46.22
31337;BME280;22846;42.654;23.314;2024-01-11T08:34:08;95146.88;;;25.29;45.75
31337;BME280;22846;42.654;23.314;2024-01-11T08:36:36;95146.88;;;25.29;45.76
31337;BME280;22846;42.654;23.314;2024-01-11T08:39:05;95144.13;;;25.29;45.59
31337;BME280;22846;42.654;23.314;2024-01-11T08:41:31;95149.19;;;25.30;45.59
31337;BME280;22846;42.654;23.314;2024-01-11T08:43:57;95147.22;;;25.31;45.53
31337;BME280;22846;42.654;23.314;2024-01-11T08:46:25;95121.88;;;25.14;45.26
31337;BME280;22846;42.654;23.314;2024-01-11T08:48:54;95144.47;;;25.31;45.48
31337;BME280;22846;42.654;23.314;2024-01-11T08:51:21;95143.28;;;25.32;45.13
31337;BME280;22846;42.654;23.314;2024-01-11T08:53:47;95141.75;;;25.31;45.43
31337;BME280;22846;42.654;23.314;2024-01-11T08:56:12;95131.75;;;25.24;44.99
31337;BME280;22846;42.654;23.314;2024-01-11T08:58:39;95138.25;;;25.30;45.54
31337;BME280;22846;42.654;23.314;2024-01-11T09:01:05;95129.16;;;25.33;45.80
31337;BME280;22846;42.654;23.314;2024-01-11T09:03:32;95123.38;;;25.31;45.96
31337;BME280;22846;42.654;23.314;2024-01-11T09:05:57;95121.31;;;25.35;45.95
31337;BME280;22846;42.654;23.314;2024-01-11T09:08:23;95126.69;;;25.39;46.74
31337;BME280;22846;42.654;23.314;2024-01-11T09:10:48;95114.44;;;25.43;46.67
31337;BME280;22846;42.654;23.314;2024-01-11T09:13:14;95114.78;;;25.45;46.34
31337;BME280;22846;42.654;23.314;2024-01-11T09:15:42;95109.22;;;25.49;46.41
31337;BME280;22846;42.654;23.314;2024-01-11T09:18:08;95106.81;;;25.51;46.51
31337;BME280;22846;42.654;23.314;2024-01-11T09:20:34;95107.16;;;25.53;45.67
31337;BME280;22846;42.654;23.314;2024-01-11T09:23:00;95109.09;;;25.52;45.09
31337;BME280;22846;42.654;23.314;2024-01-11T09:25:31;95095.09;;;25.50;45.18
31337;BME280;22846;42.654;23.314;2024-01-11T09:27:56;95090.06;;;25.49;44.56
31337;BME280;22846;42.654;23.314;2024-01-11T09:30:22;95053.59;;;25.23;44.52
31337;BME280;22846;42.654;23.314;2024-01-11T09:32:47;95077.66;;;25.44;44.76
31337;BME280;22846;42.654;23.314;2024-01-11T09:35:13;95090.50;;;25.47;44.67
31337;BME280;22846;42.654;23.314;2024-01-11T09:37:39;95057.47;;;25.26;44.76
31337;BME280;22846;42.654;23.314;2024-01-11T09:40:05;95086.53;;;25.20;53.42
31337;BME280;22846;42.654;23.314;2024-01-11T09:42:36;95078.63;;;24.46;52.97
31337;BME280;22846;42.654;23.314;2024-01-11T09:45:02;95068.53;;;23.92;53.47
31337;BME280;22846;42.654;23.314;2024-01-11T09:47:31;95059.34;;;23.47;53.36
31337;BME280;22846;42.654;23.314;2024-01-11T09:49:58;95061.44;;;23.39;54.16
31337;BME280;22846;42.654;23.314;2024-01-11T09:52:25;95057.19;;;23.38;53.48
31337;BME280;22846;42.654;23.314;2024-01-11T09:54:51;95045.22;;;23.52;52.47
31337;BME280;22846;42.654;23.314;2024-01-11T09:57:24;95025.53;;;23.60;51.67
31337;BME280;22846;42.654;23.314;2024-01-11T09:59:54;95045.53;;;23.92;51.50
31337;BME280;22846;42.654;23.314;2024-01-11T10:02:22;95019.44;;;24.07;50.49
31337;BME280;22846;42.654;23.314;2024-01-11T10:04:48;95015.09;;;24.26;49.63
31337;BME280;22846;42.654;23.314;2024-01-11T10:07:15;95031.16;;;24.56;49.26
31337;BME280;22846;42.654;23.314;2024-01-11T10:09:44;95029.03;;;24.63;48.30
31337;BME280;22846;42.654;23.314;2024-01-11T10:12:09;95013.28;;;24.67;48.61
31337;BME280;22846;42.654;23.314;2024-01-11T10:14:35;95015.00;;;24.77;48.19
31337;BME280;22846;42.654;23.314;2024-01-11T10:17:00;95010.88;;;24.85;47.65
31337;BME280;22846;42.654;23.314;2024-01-11T10:19:26;94990.53;;;24.86;47.25
31337;BME280;22846;42.654;23.314;2024-01-11T10:21:52;95002.09;;;25.06;47.34
31337;BME280;22846;42.654;23.314;2024-01-11T10:24:20;95006.22;;;25.14;47.10
31337;BME280;22846;42.654;23.314;2024-01-11T10:26:47;95000.19;;;25.19;46.96
31337;BME280;22846;42.654;23.314;2024-01-11T10:29:12;95004.72;;;25.25;46.44
31337;BME280;22846;42.654;23.314;2024-01-11T10:31:38;94989.19;;;25.22;46.31
31337;BME280;22846;42.654;23.314;2024-01-11T10:34:04;94992.69;;;25.23;46.61
31337;BME280;22846;42.654;23.314;2024-01-11T10:36:33;94963.31;;;25.11;46.87
31337;BME280;22846;42.654;23.314;2024-01-11T10:39:01;94965.41;;;25.19;46.75
31337;BME280;22846;42.654;23.314;2024-01-11T10:41:32;94966.53;;;25.22;46.56
31337;BME280;22846;42.654;23.314;2024-01-11T10:43:57;94963.34;;;25.23;45.75
31337;BME280;22846;42.654;23.314;2024-01-11T10:46:26;94964.47;;;25.26;45.89
31337;BME280;22846;42.654;23.314;2024-01-11T10:48:55;94957.88;;;25.23;46.06
31337;BME280;22846;42.654;23.314;2024-01-11T10:51:23;94956.25;;;25.26;46.10
31337;BME280;22846;42.654;23.314;2024-01-11T10:53:51;94933.16;;;25.14;46.16
31337;BME280;22846;42.654;23.314;2024-01-11T10:56:19;94952.31;;;25.27;46.24
31337;BME280;22846;42.654;23.314;2024-01-11T10:58:46;94936.88;;;25.20;45.70
31337;BME280;22846;42.654;23.314;2024-01-11T11:01:12;94934.69;;;25.28;45.65
31337;BME280;22846;42.654;23.314;2024-01-11T11:03:39;94927.25;;;25.28;45.63
31337;BME280;22846;42.654;23.314;2024-01-11T11:06:06;94925.16;;;25.32;45.82
31337;BME280;22846;42.654;23.314;2024-01-11T11:08:32;94917.75;;;25.33;46.03
31337;BME280;22846;42.654;23.314;2024-01-11T11:11:00;94920.94;;;25.31;45.68
31337;BME280;22846;42.654;23.314;2024-01-11T11:13:26;94913.47;;;25.32;46.02
31337;BME280;22846;42.654;23.314;2024-01-11T11:15:52;94905.59;;;25.34;45.62
31337;BME280;22846;42.654;23.314;2024-01-11T11:18:19;94896.94;;;25.35;45.70
31337;BME280;22846;42.654;23.314;2024-01-11T11:20:46;94878.75;;;25.29;45.63
31337;BME280;22846;42.654;23.314;2024-01-11T11:23:14;94893.69;;;25.40;45.67
31337;BME280;22846;42.654;23.314;2024-01-11T11:25:42;94882.28;;;25.42;45.82
31337;BME280;22846;42.654;23.314;2024-01-11T11:28:08;94860.06;;;25.27;45.24
31337;BME280;22846;42.654;23.314;2024-01-11T11:30:37;94871.47;;;25.38;45.48
31337;BME280;22846;42.654;23.314;2024-01-11T11:33:10;94868.94;;;25.44;45.45
31337;BME280;22846;42.654;23.314;2024-01-11T11:35:36;94867.81;;;25.41;45.06
31337;BME280;22846;42.654;23.314;2024-01-11T11:38:02;94860.41;;;25.42;45.22
31337;BME280;22846;42.654;23.314;2024-01-11T11:40:38;94841.13;;;25.33;44.99
31337;BME280;22846;42.654;23.314;2024-01-11T11:43:06;94830.41;;;25.38;45.37
31337;BME280;22846;42.654;23.314;2024-01-11T11:45:31;94847.34;;;25.46;45.44
31337;BME280;22846;42.654;23.314;2024-01-11T11:47:57;94842.66;;;25.46;45.05
31337;BME280;22846;42.654;23.314;2024-01-11T11:50:23;94842.66;;;25.46;45.26
31337;BME280;22846;42.654;23.314;2024-01-11T11:52:55;94839.16;;;25.46;45.29
31337;BME280;22846;42.654;23.314;2024-01-11T11:55:24;94843.13;;;25.45;45.19
31337;BME280;22846;42.654;23.314;2024-01-11T11:57:53;94838.28;;;25.49;44.76
31337;BME280;22846;42.654;23.314;2024-01-11T12:00:20;94836.22;;;25.53;44.94
31337;BME280;22846;42.654;23.314;2024-01-11T12:02:48;94809.06;;;25.46;44.97
31337;BME280;22846;42.654;23.314;2024-01-11T12:05:16;94814.84;;;25.48;45.06
31337;BME280;22846;42.654;23.314;2024-01-11T12:07:42;94822.09;;;25.54;44.77
31337;BME280;22846;42.654;23.314;2024-01-11T12:10:08;94777.66;;;25.25;44.55
31337;BME280;22846;42.654;23.314;2024-01-11T12:12:35;94805.22;;;25.56;44.83
31337;BME280;22846;42.654;23.314;2024-01-11T12:15:03;94814.50;;;25.58;44.67
31337;BME280;22846;42.654;23.314;2024-01-11T12:17:28;94807.41;;;25.61;44.71
31337;BME280;22846;42.654;23.314;2024-01-11T12:19:54;94797.56;;;25.63;44.84
31337;BME280;22846;42.654;23.314;2024-01-11T12:22:20;94792.41;;;25.65;44.56
31337;BME280;22846;42.654;23.314;2024-01-11T12:24:46;94793.16;;;25.65;44.60
31337;BME280;22846;42.654;23.314;2024-01-11T12:27:12;94778.59;;;25.68;44.57
31337;BME280;22846;42.654;23.314;2024-01-11T12:29:40;94779.56;;;25.74;44.84
31337;BME280;22846;42.654;23.314;2024-01-11T12:32:06;94764.13;;;25.68;44.23
31337;BME280;22846;42.654;23.314;2024-01-11T12:34:32;94768.41;;;25.81;44.39
31337;BME280;22846;42.654;23.314;2024-01-11T12:36:58;94753.16;;;25.80;44.38
31337;BME280;22846;42.654;23.314;2024-01-11T12:39:26;94756.13;;;25.86;44.54
31337;BME280;22846;42.654;23.314;2024-01-11T12:41:54;94761.66;;;25.95;44.91
31337;BME280;22846;42.654;23.314;2024-01-11T12:44:20;94757.28;;;25.97;45.39
31337;BME280;22846;42.654;23.314;2024-01-11T12:46:48;94746.56;;;25.90;45.71